CheckWX is a tool to help pilots better visualize weather data.  It is not intended as a substitute for an official pre-flight weather briefing.

05:02:02 UTC

ENBN TAF
Brønnøysund Airport
Brønnøy, Norway
TAF ENBN 242000Z 2421/2506 13008KT CAVOK

May-24@
21:00 UTC

May-24 @ 21:00 UTC

May-25@
06:00 UTC

May-25 @ 06:00 UTC

TAF ENBN 242000Z 2421/2506 13008KT CAVOK
Wind
  • 130° at 8 KTS
Conditions
No significant weather
Cloud Levels
  • No significant clouds